sensor_id;sensor_type;location;lat;lon;timestamp;temperature;humidity
75466;HTU21D;64049;46.290;44.240;2023-05-07T00:01:58;14.09;55.66
75466;HTU21D;64049;46.290;44.240;2023-05-07T00:04:24;14.05;55.81
75466;HTU21D;64049;46.290;44.240;2023-05-07T00:06:50;13.99;55.90
75466;HTU21D;64049;46.290;44.240;2023-05-07T00:09:16;13.95;56.03
75466;HTU21D;64049;46.290;44.240;2023-05-07T00:11:42;13.91;56.10
75466;HTU21D;64049;46.290;44.240;2023-05-07T00:14:09;13.86;56.52
75466;HTU21D;64049;46.290;44.240;2023-05-07T00:16:35;13.83;56.91
75466;HTU21D;64049;46.290;44.240;2023-05-07T00:19:01;13.89;57.26
75466;HTU21D;64049;46.290;44.240;2023-05-07T00:21:27;13.89;57.39
75466;HTU21D;64049;46.290;44.240;2023-05-07T00:27:40;13.75;57.26
75466;HTU21D;64049;46.290;44.240;2023-05-07T00:30:06;13.62;57.67
75466;HTU21D;64049;46.290;44.240;2023-05-07T00:32:32;13.56;58.25
75466;HTU21D;64049;46.290;44.240;2023-05-07T00:35:01;13.48;58.51
75466;HTU21D;64049;46.290;44.240;2023-05-07T00:37:27;13.44;58.73
75466;HTU21D;64049;46.290;44.240;2023-05-07T00:39:53;13.41;58.86
75466;HTU21D;64049;46.290;44.240;2023-05-07T00:42:19;13.33;58.65
75466;HTU21D;64049;46.290;44.240;2023-05-07T00:44:46;13.24;58.97
75466;HTU21D;64049;46.290;44.240;2023-05-07T00:47:13;13.19;59.37
75466;HTU21D;64049;46.290;44.240;2023-05-07T00:49:42;13.15;59.58
75466;HTU21D;64049;46.290;44.240;2023-05-07T00:52:14;13.06;59.67
75466;HTU21D;64049;46.290;44.240;2023-05-07T00:54:42;12.99;59.55
75466;HTU21D;64049;46.290;44.240;2023-05-07T00:57:09;12.90;59.85
75466;HTU21D;64049;46.290;44.240;2023-05-07T00:59:35;12.81;59.83
75466;HTU21D;64049;46.290;44.240;2023-05-07T01:02:01;12.80;60.75
75466;HTU21D;64049;46.290;44.240;2023-05-07T01:04:30;12.87;61.02
75466;HTU21D;64049;46.290;44.240;2023-05-07T01:06:58;12.88;60.98
75466;HTU21D;64049;46.290;44.240;2023-05-07T01:09:24;12.85;61.26
75466;HTU21D;64049;46.290;44.240;2023-05-07T01:11:52;12.75;61.12
75466;HTU21D;64049;46.290;44.240;2023-05-07T01:14:29;12.69;61.41
75466;HTU21D;64049;46.290;44.240;2023-05-07T01:16:56;12.66;61.72
75466;HTU21D;64049;46.290;44.240;2023-05-07T01:19:24;12.65;61.75
75466;HTU21D;64049;46.290;44.240;2023-05-07T01:21:51;12.63;61.67
75466;HTU21D;64049;46.290;44.240;2023-05-07T01:24:21;12.63;61.96
75466;HTU21D;64049;46.290;44.240;2023-05-07T01:26:46;12.64;61.93
75466;HTU21D;64049;46.290;44.240;2023-05-07T01:29:15;12.62;62.22
75466;HTU21D;64049;46.290;44.240;2023-05-07T01:31:41;12.61;62.37
75466;HTU21D;64049;46.290;44.240;2023-05-07T01:34:09;12.61;62.38
75466;HTU21D;64049;46.290;44.240;2023-05-07T01:36:38;12.61;62.66
75466;HTU21D;64049;46.290;44.240;2023-05-07T01:39:06;12.66;62.99
75466;HTU21D;64049;46.290;44.240;2023-05-07T01:41:32;12.71;63.21
75466;HTU21D;64049;46.290;44.240;2023-05-07T01:44:10;12.75;63.04
75466;HTU21D;64049;46.290;44.240;2023-05-07T01:46:36;12.78;62.77
75466;HTU21D;64049;46.290;44.240;2023-05-07T01:49:02;12.81;62.66
75466;HTU21D;64049;46.290;44.240;2023-05-07T01:51:29;12.88;62.73
75466;HTU21D;64049;46.290;44.240;2023-05-07T01:53:57;12.96;62.64
75466;HTU21D;64049;46.290;44.240;2023-05-07T01:56:25;13.07;62.88
75466;HTU21D;64049;46.290;44.240;2023-05-07T01:58:51;13.15;63.66
75466;HTU21D;64049;46.290;44.240;2023-05-07T02:01:17;13.14;63.45
75466;HTU21D;64049;46.290;44.240;2023-05-07T02:07:33;13.30;64.50
75466;HTU21D;64049;46.290;44.240;2023-05-07T02:09:59;13.34;65.60
75466;HTU21D;64049;46.290;44.240;2023-05-07T02:12:25;13.39;66.19
75466;HTU21D;64049;46.290;44.240;2023-05-07T02:14:57;13.41;66.33
75466;HTU21D;64049;46.290;44.240;2023-05-07T02:17:23;13.41;66.03
75466;HTU21D;64049;46.290;44.240;2023-05-07T02:19:49;13.40;66.34
75466;HTU21D;64049;46.290;44.240;2023-05-07T02:22:15;13.41;66.66
75466;HTU21D;64049;46.290;44.240;2023-05-07T02:24:44;13.44;66.75
75466;HTU21D;64049;46.290;44.240;2023-05-07T02:27:10;13.46;66.97
75466;HTU21D;64049;46.290;44.240;2023-05-07T02:29:37;13.46;68.50
75466;HTU21D;64049;46.290;44.240;2023-05-07T02:32:03;13.46;68.64
75466;HTU21D;64049;46.290;44.240;2023-05-07T02:37:41;13.48;68.32
75466;HTU21D;64049;46.290;44.240;2023-05-07T02:40:07;13.49;68.50
75466;HTU21D;64049;46.290;44.240;2023-05-07T02:42:33;13.53;68.75
75466;HTU21D;64049;46.290;44.240;2023-05-07T02:52:34;13.64;68.62
75466;HTU21D;64049;46.290;44.240;2023-05-07T02:58:47;13.80;68.61
75466;HTU21D;64049;46.290;44.240;2023-05-07T03:01:14;13.89;68.75
75466;HTU21D;64049;46.290;44.240;2023-05-07T03:10:55;13.99;70.71
75466;HTU21D;64049;46.290;44.240;2023-05-07T03:13:21;14.01;70.66
75466;HTU21D;64049;46.290;44.240;2023-05-07T03:15:48;14.03;71.09
75466;HTU21D;64049;46.290;44.240;2023-05-07T03:18:13;13.99;71.67
75466;HTU21D;64049;46.290;44.240;2023-05-07T03:20:39;14.00;71.61
75466;HTU21D;64049;46.290;44.240;2023-05-07T03:23:06;13.99;71.26
75466;HTU21D;64049;46.290;44.240;2023-05-07T03:25:32;14.01;71.06
75466;HTU21D;64049;46.290;44.240;2023-05-07T03:27:58;13.99;70.84
75466;HTU21D;64049;46.290;44.240;2023-05-07T03:30:32;13.94;70.68
75466;HTU21D;64049;46.290;44.240;2023-05-07T03:32:58;13.89;70.63
75466;HTU21D;64049;46.290;44.240;2023-05-07T03:35:32;13.86;70.71
75466;HTU21D;64049;46.290;44.240;2023-05-07T03:37:58;13.75;71.64
75466;HTU21D;64049;46.290;44.240;2023-05-07T03:40:27;13.64;71.90
75466;HTU21D;64049;46.290;44.240;2023-05-07T03:42:55;13.56;72.04
75466;HTU21D;64049;46.290;44.240;2023-05-07T03:45:27;13.52;72.04
75466;HTU21D;64049;46.290;44.240;2023-05-07T03:48:19;13.60;71.77
75466;HTU21D;64049;46.290;44.240;2023-05-07T03:50:46;13.73;71.25
75466;HTU21D;64049;46.290;44.240;2023-05-07T03:53:14;13.88;70.66
75466;HTU21D;64049;46.290;44.240;2023-05-07T03:55:40;13.92;70.35
75466;HTU21D;64049;46.290;44.240;2023-05-07T03:58:06;13.93;70.16
75466;HTU21D;64049;46.290;44.240;2023-05-07T04:00:32;13.91;70.24
75466;HTU21D;64049;46.290;44.240;2023-05-07T04:03:12;13.94;70.00
75466;HTU21D;64049;46.290;44.240;2023-05-07T04:05:44;13.97;69.89
75466;HTU21D;64049;46.290;44.240;2023-05-07T04:08:10;14.00;69.75
75466;HTU21D;64049;46.290;44.240;2023-05-07T04:10:44;14.07;69.45
75466;HTU21D;64049;46.290;44.240;2023-05-07T04:13:10;14.24;69.08
75466;HTU21D;64049;46.290;44.240;2023-05-07T04:15:37;14.43;68.71
75466;HTU21D;64049;46.290;44.240;2023-05-07T04:18:06;14.62;68.22
75466;HTU21D;64049;46.290;44.240;2023-05-07T04:20:34;14.78;67.84
75466;HTU21D;64049;46.290;44.240;2023-05-07T04:23:02;14.98;67.38
75466;HTU21D;64049;46.290;44.240;2023-05-07T04:25:29;15.16;66.97
75466;HTU21D;64049;46.290;44.240;2023-05-07T04:28:04;15.43;66.39
75466;HTU21D;64049;46.290;44.240;2023-05-07T04:30:30;15.73;65.82
75466;HTU21D;64049;46.290;44.240;2023-05-07T04:32:56;16.03;65.21
75466;HTU21D;64049;46.290;44.240;2023-05-07T04:35:24;16.19;64.77
75466;HTU21D;64049;46.290;44.240;2023-05-07T04:37:51;16.19;64.44
75466;HTU21D;64049;46.290;44.240;2023-05-07T04:40:17;16.16;64.24
75466;HTU21D;64049;46.290;44.240;2023-05-07T04:42:43;16.12;64.01
75466;HTU21D;64049;46.290;44.240;2023-05-07T04:45:13;16.08;63.99
75466;HTU21D;64049;46.290;44.240;2023-05-07T04:47:40;16.10;63.67
75466;HTU21D;64049;46.290;44.240;2023-05-07T04:50:07;16.16;63.56
75466;HTU21D;64049;46.290;44.240;2023-05-07T04:52:34;16.14;63.22
75466;HTU21D;64049;46.290;44.240;2023-05-07T04:55:06;16.14;63.20
75466;HTU21D;64049;46.290;44.240;2023-05-07T04:57:36;16.17;63.09
75466;HTU21D;64049;46.290;44.240;2023-05-07T05:00:05;16.12;63.01
75466;HTU21D;64049;46.290;44.240;2023-05-07T05:02:35;16.16;62.88
75466;HTU21D;64049;46.290;44.240;2023-05-07T05:05:01;16.18;62.74
75466;HTU21D;64049;46.290;44.240;2023-05-07T05:07:30;16.18;62.73
75466;HTU21D;64049;46.290;44.240;2023-05-07T05:09:57;16.31;62.56
75466;HTU21D;64049;46.290;44.240;2023-05-07T05:12:24;16.39;62.31
75466;HTU21D;64049;46.290;44.240;2023-05-07T05:14:52;16.44;62.05
75466;HTU21D;64049;46.290;44.240;2023-05-07T05:17:18;16.50;62.01
75466;HTU21D;64049;46.290;44.240;2023-05-07T05:19:45;16.55;61.81
75466;HTU21D;64049;46.290;44.240;2023-05-07T05:22:14;16.58;61.79
75466;HTU21D;64049;46.290;44.240;2023-05-07T05:24:41;16.67;61.64
75466;HTU21D;64049;46.290;44.240;2023-05-07T05:27:07;16.73;61.38
75466;HTU21D;64049;46.290;44.240;2023-05-07T05:29:34;16.85;61.18
75466;HTU21D;64049;46.290;44.240;2023-05-07T05:32:00;17.03;60.76
75466;HTU21D;64049;46.290;44.240;2023-05-07T05:34:32;17.24;60.16
75466;HTU21D;64049;46.290;44.240;2023-05-07T05:36:59;17.41;59.75
75466;HTU21D;64049;46.290;44.240;2023-05-07T05:39:25;17.56;59.25
75466;HTU21D;64049;46.290;44.240;2023-05-07T05:41:51;17.72;59.12
75466;HTU21D;64049;46.290;44.240;2023-05-07T05:44:19;18.11;58.66
75466;HTU21D;64049;46.290;44.240;2023-05-07T05:46:45;18.59;57.80
75466;HTU21D;64049;46.290;44.240;2023-05-07T05:49:12;18.83;57.04
75466;HTU21D;64049;46.290;44.240;2023-05-07T05:51:44;18.88;56.61
75466;HTU21D;64049;46.290;44.240;2023-05-07T05:54:26;19.18;56.29
75466;HTU21D;64049;46.290;44.240;2023-05-07T05:56:52;19.31;55.58
75466;HTU21D;64049;46.290;44.240;2023-05-07T05:59:18;19.43;55.45
75466;HTU21D;64049;46.290;44.240;2023-05-07T06:01:44;19.62;55.16
75466;HTU21D;64049;46.290;44.240;2023-05-07T06:04:11;19.66;54.65
75466;HTU21D;64049;46.290;44.240;2023-05-07T06:06:37;19.69;54.36
75466;HTU21D;64049;46.290;44.240;2023-05-07T06:09:03;19.63;54.35
75466;HTU21D;64049;46.290;44.240;2023-05-07T06:11:36;19.58;54.27
75466;HTU21D;64049;46.290;44.240;2023-05-07T06:14:02;19.60;54.26
75466;HTU21D;64049;46.290;44.240;2023-05-07T06:16:29;19.75;54.02
75466;HTU21D;64049;46.290;44.240;2023-05-07T06:18:56;20.00;53.40
75466;HTU21D;64049;46.290;44.240;2023-05-07T06:21:23;20.34;52.74
75466;HTU21D;64049;46.290;44.240;2023-05-07T06:23:49;20.54;52.15
75466;HTU21D;64049;46.290;44.240;2023-05-07T06:26:18;20.63;51.25
75466;HTU21D;64049;46.290;44.240;2023-05-07T06:28:46;20.77;51.60
75466;HTU21D;64049;46.290;44.240;2023-05-07T06:31:15;20.95;50.79
75466;HTU21D;64049;46.290;44.240;2023-05-07T06:33:47;21.14;50.34
75466;HTU21D;64049;46.290;44.240;2023-05-07T06:36:14;21.34;50.46
75466;HTU21D;64049;46.290;44.240;2023-05-07T06:38:41;21.47;50.22
75466;HTU21D;64049;46.290;44.240;2023-05-07T06:41:07;21.63;49.82
75466;HTU21D;64049;46.290;44.240;2023-05-07T06:43:33;21.72;50.03
75466;HTU21D;64049;46.290;44.240;2023-05-07T06:46:26;21.88;49.78
75466;HTU21D;64049;46.290;44.240;2023-05-07T06:48:53;21.83;49.64
75466;HTU21D;64049;46.290;44.240;2023-05-07T06:51:19;21.70;49.71
75466;HTU21D;64049;46.290;44.240;2023-05-07T06:53:46;21.62;49.88
75466;HTU21D;64049;46.290;44.240;2023-05-07T06:56:12;21.63;49.52
75466;HTU21D;64049;46.290;44.240;2023-05-07T06:58:39;21.40;49.59
75466;HTU21D;64049;46.290;44.240;2023-05-07T07:01:05;21.40;50.11
75466;HTU21D;64049;46.290;44.240;2023-05-07T07:03:33;21.67;49.98
75466;HTU21D;64049;46.290;44.240;2023-05-07T07:05:59;22.09;49.50
75466;HTU21D;64049;46.290;44.240;2023-05-07T07:08:29;22.16;48.42
75466;HTU21D;64049;46.290;44.240;2023-05-07T07:10:56;22.16;48.79
75466;HTU21D;64049;46.290;44.240;2023-05-07T07:13:22;22.41;48.17
75466;HTU21D;64049;46.290;44.240;2023-05-07T07:15:48;22.60;48.05
75466;HTU21D;64049;46.290;44.240;2023-05-07T07:18:14;22.47;47.69
75466;HTU21D;64049;46.290;44.240;2023-05-07T07:20:42;22.22;47.75
75466;HTU21D;64049;46.290;44.240;2023-05-07T07:23:10;22.34;47.30
75466;HTU21D;64049;46.290;44.240;2023-05-07T07:25:38;22.51;47.12
75466;HTU21D;64049;46.290;44.240;2023-05-07T07:28:05;23.20;46.12
75466;HTU21D;64049;46.290;44.240;2023-05-07T07:30:31;23.64;45.49
75466;HTU21D;64049;46.290;44.240;2023-05-07T07:32:57;23.75;45.25
75466;HTU21D;64049;46.290;44.240;2023-05-07T07:35:42;23.86;44.28
75466;HTU21D;64049;46.290;44.240;2023-05-07T07:38:09;23.99;43.26
75466;HTU21D;64049;46.290;44.240;2023-05-07T07:40:35;23.80;42.73
75466;HTU21D;64049;46.290;44.240;2023-05-07T07:43:03;23.81;42.81
75466;HTU21D;64049;46.290;44.240;2023-05-07T07:45:34;23.96;42.66
75466;HTU21D;64049;46.290;44.240;2023-05-07T07:48:00;24.25;41.86
75466;HTU21D;64049;46.290;44.240;2023-05-07T07:50:27;24.39;41.27
75466;HTU21D;64049;46.290;44.240;2023-05-07T07:52:53;24.32;40.94
75466;HTU21D;64049;46.290;44.240;2023-05-07T07:55:22;24.27;40.57
75466;HTU21D;64049;46.290;44.240;2023-05-07T07:57:51;24.11;40.76
75466;HTU21D;64049;46.290;44.240;2023-05-07T08:00:17;24.06;39.88
75466;HTU21D;64049;46.290;44.240;2023-05-07T08:02:44;23.77;39.68
75466;HTU21D;64049;46.290;44.240;2023-05-07T08:05:17;23.67;39.81
75466;HTU21D;64049;46.290;44.240;2023-05-07T08:07:44;23.64;39.72
75466;HTU21D;64049;46.290;44.240;2023-05-07T08:10:12;23.71;39.26
75466;HTU21D;64049;46.290;44.240;2023-05-07T08:12:39;23.77;38.77
75466;HTU21D;64049;46.290;44.240;2023-05-07T08:15:05;23.83;39.09
75466;HTU21D;64049;46.290;44.240;2023-05-07T08:17:32;23.85;38.59
75466;HTU21D;64049;46.290;44.240;2023-05-07T08:19:58;23.60;38.65
75466;HTU21D;64049;46.290;44.240;2023-05-07T08:22:24;23.58;38.65
75466;HTU21D;64049;46.290;44.240;2023-05-07T08:24:50;23.56;38.45
75466;HTU21D;64049;46.290;44.240;2023-05-07T08:27:17;23.56;38.65
75466;HTU21D;64049;46.290;44.240;2023-05-07T08:29:43;23.61;38.49
75466;HTU21D;64049;46.290;44.240;2023-05-07T08:32:14;23.66;37.88
75466;HTU21D;64049;46.290;44.240;2023-05-07T08:34:40;23.56;38.13
75466;HTU21D;64049;46.290;44.240;2023-05-07T08:37:06;23.66;37.87
75466;HTU21D;64049;46.290;44.240;2023-05-07T08:39:33;23.69;37.43
75466;HTU21D;64049;46.290;44.240;2023-05-07T08:42:01;23.65;37.56
75466;HTU21D;64049;46.290;44.240;2023-05-07T08:44:35;23.76;37.57
75466;HTU21D;64049;46.290;44.240;2023-05-07T08:47:02;23.77;37.24
75466;HTU21D;64049;46.290;44.240;2023-05-07T08:49:30;23.73;37.20
75466;HTU21D;64049;46.290;44.240;2023-05-07T08:51:56;23.73;37.46
75466;HTU21D;64049;46.290;44.240;2023-05-07T08:54:23;23.80;37.14
75466;HTU21D;64049;46.290;44.240;2023-05-07T08:56:50;23.79;37.26
75466;HTU21D;64049;46.290;44.240;2023-05-07T08:59:17;23.83;37.08
75466;HTU21D;64049;46.290;44.240;2023-05-07T09:01:44;23.91;37.60
75466;HTU21D;64049;46.290;44.240;2023-05-07T09:04:10;23.84;37.57
75466;HTU21D;64049;46.290;44.240;2023-05-07T09:06:38;23.56;37.97
75466;HTU21D;64049;46.290;44.240;2023-05-07T09:09:09;23.28;37.89
75466;HTU21D;64049;46.290;44.240;2023-05-07T09:11:39;23.14;38.09
75466;HTU21D;64049;46.290;44.240;2023-05-07T09:14:06;22.96;38.42
75466;HTU21D;64049;46.290;44.240;2023-05-07T09:16:37;22.80;38.39
75466;HTU21D;64049;46.290;44.240;2023-05-07T09:19:04;22.75;38.55
75466;HTU21D;64049;46.290;44.240;2023-05-07T09:21:30;22.71;38.82
75466;HTU21D;64049;46.290;44.240;2023-05-07T09:24:00;22.71;39.16
75466;HTU21D;64049;46.290;44.240;2023-05-07T09:26:33;22.69;39.29
75466;HTU21D;64049;46.290;44.240;2023-05-07T09:29:01;22.66;39.14
75466;HTU21D;64049;46.290;44.240;2023-05-07T09:31:28;22.63;38.69
75466;HTU21D;64049;46.290;44.240;2023-05-07T09:33:55;22.66;38.85
75466;HTU21D;64049;46.290;44.240;2023-05-07T09:36:23;22.72;38.93
75466;HTU21D;64049;46.290;44.240;2023-05-07T09:38:50;22.80;38.75
75466;HTU21D;64049;46.290;44.240;2023-05-07T09:41:17;22.86;38.76
75466;HTU21D;64049;46.290;44.240;2023-05-07T09:43:55;22.91;39.04
75466;HTU21D;64049;46.290;44.240;2023-05-07T09:46:30;22.98;38.50
75466;HTU21D;64049;46.290;44.240;2023-05-07T09:49:01;22.95;38.29
75466;HTU21D;64049;46.290;44.240;2023-05-07T09:51:39;23.02;38.49
75466;HTU21D;64049;46.290;44.240;2023-05-07T09:54:07;23.12;38.19
75466;HTU21D;64049;46.290;44.240;2023-05-07T09:56:36;23.17;38.19
75466;HTU21D;64049;46.290;44.240;2023-05-07T09:59:12;23.42;37.79
75466;HTU21D;64049;46.290;44.240;2023-05-07T10:01:43;23.68;37.30
75466;HTU21D;64049;46.290;44.240;2023-05-07T10:04:10;23.89;36.85
75466;HTU21D;64049;46.290;44.240;2023-05-07T10:06:37;24.08;37.11
75466;HTU21D;64049;46.290;44.240;2023-05-07T10:09:05;24.50;36.56
75466;HTU21D;64049;46.290;44.240;2023-05-07T10:11:35;24.83;35.76
75466;HTU21D;64049;46.290;44.240;2023-05-07T10:14:03;25.00;35.56
75466;HTU21D;64049;46.290;44.240;2023-05-07T10:16:34;24.88;35.57
75466;HTU21D;64049;46.290;44.240;2023-05-07T10:19:08;24.58;35.37
75466;HTU21D;64049;46.290;44.240;2023-05-07T10:21:37;24.18;35.85
75466;HTU21D;64049;46.290;44.240;2023-05-07T10:24:21;23.92;36.60
75466;HTU21D;64049;46.290;44.240;2023-05-07T10:26:50;23.82;36.69
75466;HTU21D;64049;46.290;44.240;2023-05-07T10:29:33;23.81;36.69
75466;HTU21D;64049;46.290;44.240;2023-05-07T10:32:30;23.97;36.41
75466;HTU21D;64049;46.290;44.240;2023-05-07T10:34:59;24.13;36.02
75466;HTU21D;64049;46.290;44.240;2023-05-07T10:37:26;24.09;35.90
75466;HTU21D;64049;46.290;44.240;2023-05-07T10:39:52;23.87;36.16
75466;HTU21D;64049;46.290;44.240;2023-05-07T10:42:19;23.74;36.67
75466;HTU21D;64049;46.290;44.240;2023-05-07T10:44:53;23.44;36.53
75466;HTU21D;64049;46.290;44.240;2023-05-07T10:47:26;23.15;37.11
75466;HTU21D;64049;46.290;44.240;2023-05-07T10:52:35;22.85;38.10
75466;HTU21D;64049;46.290;44.240;2023-05-07T10:58:27;22.98;37.82
75466;HTU21D;64049;46.290;44.240;2023-05-07T11:01:01;22.90;38.04
75466;HTU21D;64049;46.290;44.240;2023-05-07T11:03:33;22.85;38.12
75466;HTU21D;64049;46.290;44.240;2023-05-07T11:06:13;22.84;38.19
75466;HTU21D;64049;46.290;44.240;2023-05-07T11:08:53;22.79;38.04
75466;HTU21D;64049;46.290;44.240;2023-05-07T11:11:44;22.65;38.43
75466;HTU21D;64049;46.290;44.240;2023-05-07T11:14:14;22.58;38.49
75466;HTU21D;64049;46.290;44.240;2023-05-07T11:17:07;22.51;38.65
75466;HTU21D;64049;46.290;44.240;2023-05-07T11:19:52;22.37;38.92
75466;HTU21D;64049;46.290;44.240;2023-05-07T11:22:36;22.21;39.15
75466;HTU21D;64049;46.290;44.240;2023-05-07T11:25:18;22.04;39.08
75466;HTU21D;64049;46.290;44.240;2023-05-07T11:27:53;21.94;39.25
75466;HTU21D;64049;46.290;44.240;2023-05-07T11:30:20;21.89;39.04
75466;HTU21D;64049;46.290;44.240;2023-05-07T11:32:48;21.85;39.23
75466;HTU21D;64049;46.290;44.240;2023-05-07T11:35:16;21.78;39.23
75466;HTU21D;64049;46.290;44.240;2023-05-07T11:37:45;21.68;39.64
75466;HTU21D;64049;46.290;44.240;2023-05-07T11:40:13;21.57;39.72
75466;HTU21D;64049;46.290;44.240;2023-05-07T11:42:40;21.40;39.91
75466;HTU21D;64049;46.290;44.240;2023-05-07T11:45:09;21.32;39.93
75466;HTU21D;64049;46.290;44.240;2023-05-07T11:47:35;21.29;39.87
75466;HTU21D;64049;46.290;44.240;2023-05-07T11:50:06;21.30;40.10
75466;HTU21D;64049;46.290;44.240;2023-05-07T11:52:33;21.42;40.13
75466;HTU21D;64049;46.290;44.240;2023-05-07T11:55:00;21.53;39.84
75466;HTU21D;64049;46.290;44.240;2023-05-07T11:57:27;21.72;39.59
75466;HTU21D;64049;46.290;44.240;2023-05-07T11:59:58;21.90;39.09
75466;HTU21D;64049;46.290;44.240;2023-05-07T12:02:24;22.17;38.42
75466;HTU21D;64049;46.290;44.240;2023-05-07T12:04:51;23.57;36.43
75466;HTU21D;64049;46.290;44.240;2023-05-07T12:07:17;24.65;34.65
75466;HTU21D;64049;46.290;44.240;2023-05-07T12:09:45;24.48;34.57
75466;HTU21D;64049;46.290;44.240;2023-05-07T12:12:11;24.25;35.15
75466;HTU21D;64049;46.290;44.240;2023-05-07T12:14:42;24.02;35.64
75466;HTU21D;64049;46.290;44.240;2023-05-07T12:17:09;23.71;35.67
75466;HTU21D;64049;46.290;44.240;2023-05-07T12:19:36;23.15;36.34
75466;HTU21D;64049;46.290;44.240;2023-05-07T12:22:07;22.69;36.95
75466;HTU21D;64049;46.290;44.240;2023-05-07T12:24:49;22.33;37.58
75466;HTU21D;64049;46.290;44.240;2023-05-07T12:27:16;22.23;37.43
75466;HTU21D;64049;46.290;44.240;2023-05-07T12:29:50;22.33;37.33
75466;HTU21D;64049;46.290;44.240;2023-05-07T12:32:18;22.52;37.12
75466;HTU21D;64049;46.290;44.240;2023-05-07T12:34:45;22.92;36.60
75466;HTU21D;64049;46.290;44.240;2023-05-07T12:37:11;23.41;35.89
75466;HTU21D;64049;46.290;44.240;2023-05-07T12:39:43;23.61;35.17
75466;HTU21D;64049;46.290;44.240;2023-05-07T12:42:15;23.41;35.40
75466;HTU21D;64049;46.290;44.240;2023-05-07T12:44:41;23.16;35.95
75466;HTU21D;64049;46.290;44.240;2023-05-07T12:47:10;23.06;36.34
75466;HTU21D;64049;46.290;44.240;2023-05-07T12:49:37;23.14;36.57
75466;HTU21D;64049;46.290;44.240;2023-05-07T12:52:04;23.80;35.44
75466;HTU21D;64049;46.290;44.240;2023-05-07T12:54:32;24.29;34.66
75466;HTU21D;64049;46.290;44.240;2023-05-07T12:57:05;24.51;34.44
75466;HTU21D;64049;46.290;44.240;2023-05-07T12:59:41;24.56;34.38
75466;HTU21D;64049;46.290;44.240;2023-05-07T13:02:08;24.42;34.92
75466;HTU21D;64049;46.290;44.240;2023-05-07T13:04:36;24.39;34.83
75466;HTU21D;64049;46.290;44.240;2023-05-07T13:07:02;24.19;35.06
75466;HTU21D;64049;46.290;44.240;2023-05-07T13:09:28;24.08;35.04
75466;HTU21D;64049;46.290;44.240;2023-05-07T13:11:55;24.15;34.58
75466;HTU21D;64049;46.290;44.240;2023-05-07T13:14:21;24.24;33.90
75466;HTU21D;64049;46.290;44.240;2023-05-07T13:16:47;24.25;33.87
75466;HTU21D;64049;46.290;44.240;2023-05-07T13:19:13;24.50;33.51
75466;HTU21D;64049;46.290;44.240;2023-05-07T13:21:39;24.32;33.50
75466;HTU21D;64049;46.290;44.240;2023-05-07T13:24:06;24.39;33.44
75466;HTU21D;64049;46.290;44.240;2023-05-07T13:26:32;24.01;33.52
75466;HTU21D;64049;46.290;44.240;2023-05-07T13:28:58;23.92;33.64
75466;HTU21D;64049;46.290;44.240;2023-05-07T13:31:24;23.80;34.13
75466;HTU21D;64049;46.290;44.240;2023-05-07T13:33:50;23.46;34.53
75466;HTU21D;64049;46.290;44.240;2023-05-07T13:36:18;23.06;35.08
75466;HTU21D;64049;46.290;44.240;2023-05-07T13:38:44;22.80;35.57
75466;HTU21D;64049;46.290;44.240;2023-05-07T13:41:10;22.61;35.68
75466;HTU21D;64049;46.290;44.240;2023-05-07T13:43:36;22.42;35.96
75466;HTU21D;64049;46.290;44.240;2023-05-07T13:46:01;22.19;36.25
75466;HTU21D;64049;46.290;44.240;2023-05-07T13:48:27;21.99;36.72
75466;HTU21D;64049;46.290;44.240;2023-05-07T13:50:56;21.81;37.14
75466;HTU21D;64049;46.290;44.240;2023-05-07T13:53:22;21.62;37.52
75466;HTU21D;64049;46.290;44.240;2023-05-07T13:55:48;21.46;38.07
75466;HTU21D;64049;46.290;44.240;2023-05-07T13:58:14;21.34;38.36
75466;HTU21D;64049;46.290;44.240;2023-05-07T14:00:40;21.22;38.65
75466;HTU21D;64049;46.290;44.240;2023-05-07T14:03:06;21.13;38.66
75466;HTU21D;64049;46.290;44.240;2023-05-07T14:05:32;21.04;38.78
75466;HTU21D;64049;46.290;44.240;2023-05-07T14:07:58;20.98;38.85
75466;HTU21D;64049;46.290;44.240;2023-05-07T14:10:24;20.89;38.94
75466;HTU21D;64049;46.290;44.240;2023-05-07T14:12:50;20.80;39.04
75466;HTU21D;64049;46.290;44.240;2023-05-07T14:15:16;20.74;39.24
75466;HTU21D;64049;46.290;44.240;2023-05-07T14:17:43;20.70;39.40
75466;HTU21D;64049;46.290;44.240;2023-05-07T14:20:09;20.62;39.46
75466;HTU21D;64049;46.290;44.240;2023-05-07T14:22:36;20.57;39.58
75466;HTU21D;64049;46.290;44.240;2023-05-07T14:25:03;20.57;39.77
75466;HTU21D;64049;46.290;44.240;2023-05-07T14:27:29;20.62;39.70
75466;HTU21D;64049;46.290;44.240;2023-05-07T14:29:55;20.86;39.28
75466;HTU21D;64049;46.290;44.240;2023-05-07T14:32:21;21.17;38.75
75466;HTU21D;64049;46.290;44.240;2023-05-07T14:34:47;21.48;38.32
75466;HTU21D;64049;46.290;44.240;2023-05-07T14:37:13;21.77;38.20
75466;HTU21D;64049;46.290;44.240;2023-05-07T14:39:39;22.08;37.67
75466;HTU21D;64049;46.290;44.240;2023-05-07T14:42:05;22.32;37.08
75466;HTU21D;64049;46.290;44.240;2023-05-07T14:44:36;22.49;36.72
75466;HTU21D;64049;46.290;44.240;2023-05-07T14:47:02;22.80;36.37
75466;HTU21D;64049;46.290;44.240;2023-05-07T14:49:28;23.17;35.63
75466;HTU21D;64049;46.290;44.240;2023-05-07T14:51:54;22.83;36.16
75466;HTU21D;64049;46.290;44.240;2023-05-07T14:54:22;22.44;36.54
75466;HTU21D;64049;46.290;44.240;2023-05-07T14:56:48;22.04;37.24
75466;HTU21D;64049;46.290;44.240;2023-05-07T14:59:14;21.73;37.92
75466;HTU21D;64049;46.290;44.240;2023-05-07T15:01:42;21.49;38.37
75466;HTU21D;64049;46.290;44.240;2023-05-07T15:04:11;21.27;38.76
75466;HTU21D;64049;46.290;44.240;2023-05-07T15:06:36;21.13;39.02
75466;HTU21D;64049;46.290;44.240;2023-05-07T15:09:02;21.03;39.22
75466;HTU21D;64049;46.290;44.240;2023-05-07T15:11:28;21.02;39.16
75466;HTU21D;64049;46.290;44.240;2023-05-07T15:13:54;21.02;39.25
75466;HTU21D;64049;46.290;44.240;2023-05-07T15:16:20;20.87;39.59
75466;HTU21D;64049;46.290;44.240;2023-05-07T15:18:48;20.71;39.86
75466;HTU21D;64049;46.290;44.240;2023-05-07T15:21:13;20.53;40.88
75466;HTU21D;64049;46.290;44.240;2023-05-07T15:23:40;20.22;41.96
75466;HTU21D;64049;46.290;44.240;2023-05-07T15:26:06;20.26;42.42
75466;HTU21D;64049;46.290;44.240;2023-05-07T15:28:33;20.24;42.77
75466;HTU21D;64049;46.290;44.240;2023-05-07T15:31:00;20.28;43.19
75466;HTU21D;64049;46.290;44.240;2023-05-07T15:33:26;20.36;43.46
75466;HTU21D;64049;46.290;44.240;2023-05-07T15:35:52;20.26;43.71
75466;HTU21D;64049;46.290;44.240;2023-05-07T15:38:17;20.00;44.32
75466;HTU21D;64049;46.290;44.240;2023-05-07T15:40:43;19.86;44.81
75466;HTU21D;64049;46.290;44.240;2023-05-07T15:43:10;19.50;45.83
75466;HTU21D;64049;46.290;44.240;2023-05-07T15:45:40;19.16;46.80